createdAt,value
2018-04-07T00:01:19.637Z,2.90
2018-04-07T00:03:53.473Z,3.00
2018-04-07T00:06:21.881Z,2.90
2018-04-07T00:08:50.325Z,2.90
2018-04-07T00:11:18.681Z,2.90
2018-04-07T00:13:47.227Z,3.00
2018-04-07T00:16:15.669Z,3.00
2018-04-07T00:18:44.113Z,3.00
2018-04-07T00:21:12.507Z,3.00
2018-04-07T00:23:40.913Z,3.00
2018-04-07T00:26:11.745Z,2.90
2018-04-07T00:28:40.120Z,2.90
2018-04-07T00:31:09.388Z,2.70
2018-04-07T00:33:37.794Z,2.60
2018-04-07T00:36:06.180Z,2.50
2018-04-07T00:38:34.652Z,2.40
2018-04-07T00:41:03.223Z,2.40
2018-04-07T00:43:31.642Z,2.40
2018-04-07T00:46:00.032Z,2.40
2018-04-07T00:48:31.818Z,2.30
2018-04-07T00:51:00.208Z,2.30
2018-04-07T00:53:29.369Z,2.20
2018-04-07T00:55:58.559Z,2.20
2018-04-07T00:58:26.908Z,2.10
2018-04-07T01:00:56.185Z,2.10
2018-04-07T01:03:25.548Z,2.00
2018-04-07T01:05:54.126Z,2.00
2018-04-07T01:08:22.535Z,2.00
2018-04-07T01:10:52.402Z,1.90
2018-04-07T01:13:20.932Z,1.90
2018-04-07T01:15:49.329Z,1.90
2018-04-07T01:18:18.634Z,1.80
2018-04-07T01:20:47.115Z,1.80
2018-04-07T01:25:46.393Z,1.70
2018-04-07T01:28:14.776Z,1.70
2018-04-07T01:30:43.368Z,1.70
2018-04-07T01:33:11.934Z,1.60
2018-04-07T01:35:40.373Z,1.60
2018-04-07T01:38:08.849Z,1.70
2018-04-07T01:40:37.227Z,1.80
2018-04-07T01:43:06.540Z,1.80
2018-04-07T01:45:35.071Z,1.80
2018-04-07T01:48:03.473Z,1.90
2018-04-07T01:50:31.847Z,1.90
2018-04-07T01:53:01.038Z,2.00
2018-04-07T01:55:29.452Z,1.90
2018-04-07T01:57:57.819Z,2.00
2018-04-07T02:00:26.210Z,2.00
2018-04-07T02:02:55.406Z,1.90
2018-04-07T02:05:23.978Z,1.90
2018-04-07T02:07:52.529Z,1.90
2018-04-07T02:10:20.892Z,1.90
2018-04-07T02:12:54.741Z,1.90
2018-04-07T02:15:28.594Z,1.80
2018-04-07T02:17:59.571Z,1.90
2018-04-07T02:20:28.916Z,1.80
2018-04-07T02:22:57.402Z,1.80
2018-04-07T02:25:25.884Z,1.90
2018-04-07T02:27:55.068Z,1.90
2018-04-07T02:30:23.447Z,1.90
2018-04-07T02:32:51.895Z,1.80
2018-04-07T02:35:20.270Z,1.80
2018-04-07T02:37:48.842Z,1.90
2018-04-07T02:40:17.641Z,1.80
2018-04-07T02:42:46.166Z,1.70
2018-04-07T02:45:14.657Z,1.60
2018-04-07T02:47:43.979Z,1.60
2018-04-07T02:50:12.465Z,1.50
2018-04-07T02:52:40.837Z,1.60
2018-04-07T02:55:09.187Z,1.60
2018-04-07T02:57:37.573Z,1.60
2018-04-07T03:00:06.025Z,1.60
2018-04-07T03:02:34.722Z,1.60
2018-04-07T03:05:03.080Z,1.60
2018-04-07T03:07:31.572Z,1.70
2018-04-07T03:09:59.981Z,1.70
2018-04-07T03:14:55.353Z,1.70
2018-04-07T03:17:24.502Z,1.60
2018-04-07T03:19:52.886Z,1.60
2018-04-07T03:22:22.097Z,1.50
2018-04-07T03:24:51.265Z,1.50
2018-04-07T03:27:19.670Z,1.50
2018-04-07T03:29:48.078Z,1.50
2018-04-07T03:32:16.442Z,1.40
2018-04-07T03:34:44.809Z,1.40
2018-04-07T03:37:13.210Z,1.30
2018-04-07T03:39:43.905Z,1.30
2018-04-07T03:42:12.435Z,1.30
2018-04-07T03:44:40.925Z,1.30
2018-04-07T03:47:09.356Z,1.30
2018-04-07T03:49:37.741Z,1.30
2018-04-07T03:52:06.130Z,1.20
2018-04-07T03:54:34.505Z,1.10
2018-04-07T03:57:02.896Z,1.00
2018-04-07T03:59:31.311Z,1.00
2018-04-07T04:02:04.229Z,1.00
2018-04-07T04:04:32.640Z,1.00
2018-04-07T04:07:01.215Z,0.90
2018-04-07T04:09:29.598Z,0.80
2018-04-07T04:11:58.012Z,0.80
2018-04-07T04:14:26.408Z,0.80
2018-04-07T04:16:54.883Z,0.70
2018-04-07T04:19:23.306Z,0.60
2018-04-07T04:21:51.705Z,0.70
2018-04-07T04:24:25.498Z,0.60
2018-04-07T04:26:59.384Z,0.50
2018-04-07T04:29:29.265Z,0.40
2018-04-07T04:31:57.669Z,0.30
2018-04-07T04:34:26.037Z,0.30
2018-04-07T04:36:54.428Z,0.40
2018-04-07T04:39:22.970Z,0.40
2018-04-07T04:41:52.178Z,0.50
2018-04-07T04:44:20.533Z,0.50
2018-04-07T04:46:48.915Z,0.50
2018-04-07T04:49:17.501Z,0.50
2018-04-07T04:51:45.881Z,0.50
2018-04-07T04:54:14.290Z,0.50
2018-04-07T04:56:42.714Z,0.50
2018-04-07T04:59:11.100Z,0.60
2018-04-07T05:01:39.657Z,0.60
2018-04-07T05:04:08.101Z,0.60
2018-04-07T05:06:36.479Z,0.70
2018-04-07T05:09:04.848Z,0.70
2018-04-07T05:11:33.265Z,0.90
2018-04-07T05:14:03.238Z,0.90
2018-04-07T05:16:31.590Z,0.90
2018-04-07T05:18:59.950Z,1.10
2018-04-07T05:21:28.353Z,1.30
2018-04-07T05:23:56.933Z,1.40
2018-04-07T05:26:25.395Z,1.50
2018-04-07T05:28:54.013Z,1.60
2018-04-07T05:31:22.383Z,1.70
2018-04-07T05:33:50.765Z,1.70
2018-04-07T05:36:22.237Z,2.00
2018-04-07T05:38:50.801Z,1.90
2018-04-07T05:41:19.187Z,2.00
2018-04-07T05:43:47.763Z,2.10
2018-04-07T05:46:16.161Z,2.30
2018-04-07T05:48:44.529Z,2.40
2018-04-07T05:51:13.764Z,2.70
2018-04-07T05:53:42.213Z,2.70
2018-04-07T05:56:10.609Z,2.90
2018-04-07T05:58:44.533Z,3.10
2018-04-07T06:01:12.963Z,3.20
2018-04-07T06:03:41.373Z,3.40
2018-04-07T06:06:09.775Z,3.50
2018-04-07T06:08:38.185Z,3.70
2018-04-07T06:11:06.729Z,4.00
2018-04-07T06:13:35.189Z,4.20
2018-04-07T06:16:03.606Z,4.40
2018-04-07T06:18:31.982Z,4.50
2018-04-07T06:21:02.662Z,4.70
2018-04-07T06:23:31.838Z,4.60
2018-04-07T06:26:00.386Z,4.80
2018-04-07T06:28:29.019Z,5.10
2018-04-07T06:30:57.400Z,5.20
2018-04-07T06:33:25.993Z,5.50
2018-04-07T06:35:54.385Z,5.70
2018-04-07T06:38:22.825Z,5.70
2018-04-07T06:40:51.985Z,5.80
2018-04-07T06:43:20.431Z,5.80
2018-04-07T06:45:48.835Z,5.90
2018-04-07T06:48:17.222Z,5.80
2018-04-07T06:50:45.612Z,5.70
2018-04-07T06:53:14.793Z,5.50
2018-04-07T06:55:44.122Z,5.50
2018-04-07T06:58:12.517Z,5.50
2018-04-07T07:00:40.911Z,5.50
2018-04-07T07:03:10.105Z,5.50
2018-04-07T07:05:40.872Z,5.50
2018-04-07T07:08:09.277Z,5.50
2018-04-07T07:10:37.739Z,5.50
2018-04-07T07:13:06.868Z,5.70
2018-04-07T07:15:35.440Z,5.70
2018-04-07T07:18:03.821Z,5.80
2018-04-07T07:20:32.197Z,6.00
2018-04-07T07:23:01.420Z,6.30
2018-04-07T07:25:30.776Z,6.30
2018-04-07T07:27:59.161Z,6.30
2018-04-07T07:30:28.522Z,6.60
2018-04-07T07:32:57.540Z,6.60
2018-04-07T07:35:25.992Z,6.70
2018-04-07T07:37:55.206Z,6.90
2018-04-07T07:40:24.381Z,6.90
2018-04-07T07:42:52.937Z,7.10
2018-04-07T07:45:21.305Z,7.50
2018-04-07T07:47:49.779Z,7.70
2018-04-07T07:50:20.549Z,7.70
2018-04-07T07:52:49.117Z,7.80
2018-04-07T07:55:17.526Z,7.90
2018-04-07T07:57:45.893Z,8.20
2018-04-07T08:00:14.339Z,8.40
2018-04-07T08:02:42.706Z,8.50
2018-04-07T08:05:11.263Z,8.70
2018-04-07T08:07:39.735Z,8.80
2018-04-07T08:10:08.119Z,9.20
2018-04-07T08:12:36.699Z,9.60
2018-04-07T08:15:06.035Z,10.10
2018-04-07T08:17:34.407Z,10.10
2018-04-07T08:20:03.462Z,10.20
2018-04-07T08:22:31.846Z,10.30
2018-04-07T08:25:00.206Z,10.30
2018-04-07T08:27:28.619Z,10.30
2018-04-07T08:29:57.046Z,10.40
2018-04-07T08:32:26.249Z,10.70
2018-04-07T08:34:58.277Z,10.60
2018-04-07T08:37:26.696Z,10.80
2018-04-07T08:39:55.888Z,11.20
2018-04-07T08:42:25.071Z,11.00
2018-04-07T08:44:53.660Z,11.10
2018-04-07T08:47:22.060Z,11.20
2018-04-07T08:49:50.466Z,11.30
2018-04-07T08:52:18.909Z,11.20
2018-04-07T08:54:47.301Z,11.10
2018-04-07T08:57:19.268Z,11.30
2018-04-07T08:59:47.660Z,11.60
2018-04-07T09:02:16.030Z,11.70
2018-04-07T09:04:44.424Z,11.70
2018-04-07T09:07:12.830Z,11.70
2018-04-07T09:09:41.240Z,11.90
2018-04-07T09:12:10.500Z,12.70
2018-04-07T09:14:38.879Z,12.70
2018-04-07T09:17:07.266Z,13.00
2018-04-07T09:19:38.340Z,12.90
2018-04-07T09:22:07.504Z,13.00
2018-04-07T09:24:35.895Z,13.00
2018-04-07T09:27:04.299Z,12.90
2018-04-07T09:29:32.889Z,12.90
2018-04-07T09:32:01.299Z,12.80
2018-04-07T09:34:29.708Z,12.90
2018-04-07T09:36:58.139Z,12.90
2018-04-07T09:39:26.702Z,13.30
2018-04-07T09:42:00.542Z,13.60
2018-04-07T09:44:35.284Z,13.50
2018-04-07T09:47:06.786Z,13.50
2018-04-07T09:49:35.379Z,13.50
2018-04-07T09:52:03.774Z,13.50
2018-04-07T09:54:32.181Z,13.20
2018-04-07T09:57:00.591Z,12.90
2018-04-07T09:59:29.724Z,12.70
2018-04-07T10:01:59.100Z,12.60
2018-04-07T10:04:27.616Z,12.50
2018-04-07T10:06:56.007Z,12.50
2018-04-07T10:09:24.389Z,12.30
2018-04-07T10:11:52.769Z,12.30
2018-04-07T10:14:21.345Z,12.30
2018-04-07T10:16:49.768Z,12.50
2018-04-07T10:19:18.949Z,12.70
2018-04-07T10:21:48.302Z,13.10
2018-04-07T10:24:16.670Z,13.10
2018-04-07T10:26:45.835Z,13.30
2018-04-07T10:29:15.059Z,13.30
2018-04-07T10:31:49.661Z,13.40
2018-04-07T10:34:18.051Z,13.30
2018-04-07T10:36:46.436Z,13.60
2018-04-07T10:39:15.780Z,13.30
2018-04-07T10:41:44.989Z,13.20
2018-04-07T10:44:13.410Z,13.20
2018-04-07T10:46:41.777Z,13.10
2018-04-07T10:49:10.373Z,12.70
2018-04-07T10:51:39.705Z,12.40
2018-04-07T10:54:09.036Z,12.30
2018-04-07T10:56:37.439Z,12.20
2018-04-07T10:59:06.870Z,12.20
2018-04-07T11:01:35.255Z,12.10
2018-04-07T11:04:04.633Z,12.20
2018-04-07T11:06:33.068Z,12.20
2018-04-07T11:09:01.456Z,12.20
2018-04-07T11:11:30.804Z,12.50
2018-04-07T11:13:59.189Z,12.50
2018-04-07T11:16:30.036Z,12.60
2018-04-07T11:18:58.429Z,12.60
2018-04-07T11:21:27.796Z,12.60
2018-04-07T11:23:57.489Z,12.80
2018-04-07T11:26:25.925Z,12.80
2018-04-07T11:28:54.360Z,12.80
2018-04-07T11:31:22.829Z,12.90
2018-04-07T11:33:51.209Z,13.00
2018-04-07T11:36:19.616Z,13.20
2018-04-07T11:41:53.440Z,13.40
2018-04-07T11:44:21.858Z,13.20
2018-04-07T11:46:51.154Z,13.00
2018-04-07T11:49:19.607Z,12.90
2018-04-07T11:51:48.395Z,13.00
2018-04-07T11:54:16.781Z,13.10
2018-04-07T11:56:45.166Z,13.10
2018-04-07T11:59:13.581Z,13.00
2018-04-07T12:01:42.294Z,12.90
2018-04-07T12:04:15.986Z,12.90
2018-04-07T12:06:45.217Z,12.90
2018-04-07T12:09:14.372Z,13.00
2018-04-07T12:11:42.795Z,12.90
2018-04-07T12:14:12.221Z,12.90
2018-04-07T12:16:41.349Z,13.00
2018-04-07T12:19:09.777Z,13.00
2018-04-07T12:21:42.782Z,13.20
2018-04-07T12:24:11.218Z,13.30
2018-04-07T12:26:39.617Z,13.30
2018-04-07T12:29:08.817Z,13.30
2018-04-07T12:31:37.268Z,13.30
2018-04-07T12:34:05.852Z,13.30
2018-04-07T12:36:34.420Z,13.30
2018-04-07T12:39:02.865Z,13.30
2018-04-07T12:41:31.250Z,13.30
2018-04-07T12:43:59.813Z,13.20
2018-04-07T12:46:28.450Z,13.00
2018-04-07T12:49:00.256Z,13.10
2018-04-07T12:51:29.632Z,13.20
2018-04-07T12:53:58.207Z,13.20
2018-04-07T12:56:26.781Z,13.30
2018-04-07T12:58:55.269Z,13.40
2018-04-07T13:01:23.781Z,13.40
2018-04-07T13:03:52.150Z,13.30
2018-04-07T13:06:20.709Z,13.40
2018-04-07T13:08:49.109Z,13.30
2018-04-07T13:11:17.529Z,13.20
2018-04-07T13:13:46.885Z,13.20
2018-04-07T13:16:16.226Z,13.20
2018-04-07T13:18:45.406Z,13.10
2018-04-07T13:21:14.544Z,13.10
2018-04-07T13:23:43.814Z,13.00
2018-04-07T13:26:12.235Z,12.90
2018-04-07T13:28:40.613Z,13.00
2018-04-07T13:31:09.049Z,13.20
2018-04-07T13:33:38.952Z,13.30
2018-04-07T13:36:07.958Z,13.50
2018-04-07T13:38:36.347Z,13.50
2018-04-07T13:41:04.765Z,13.40
2018-04-07T13:43:33.915Z,13.30
2018-04-07T13:46:02.443Z,13.30
2018-04-07T13:48:30.861Z,13.30
2018-04-07T13:50:59.440Z,13.20
2018-04-07T13:53:28.588Z,13.00
2018-04-07T13:55:59.583Z,13.00
2018-04-07T13:58:27.989Z,13.00
2018-04-07T14:00:56.362Z,13.00
2018-04-07T14:03:24.775Z,13.00
2018-04-07T14:05:53.203Z,13.20
2018-04-07T14:08:21.577Z,13.30
2018-04-07T14:10:50.038Z,13.30
2018-04-07T14:13:18.413Z,13.30
2018-04-07T14:15:46.967Z,13.20
2018-04-07T14:18:16.122Z,13.20
2018-04-07T14:20:45.453Z,13.10
2018-04-07T14:23:15.582Z,13.00
2018-04-07T14:25:43.989Z,13.00
2018-04-07T14:28:12.385Z,13.10
2018-04-07T14:30:40.836Z,13.00
2018-04-07T14:33:09.988Z,12.90
2018-04-07T14:35:38.686Z,12.90
2018-04-07T14:38:07.092Z,12.90
2018-04-07T14:40:40.886Z,13.00
2018-04-07T14:43:10.079Z,12.90
2018-04-07T14:45:40.232Z,12.90
2018-04-07T14:48:08.617Z,12.80
2018-04-07T14:50:37.812Z,12.70
2018-04-07T14:53:12.673Z,12.70
2018-04-07T14:55:41.245Z,12.60
2018-04-07T14:58:09.677Z,12.50
2018-04-07T15:00:38.101Z,12.40
2018-04-07T15:03:06.514Z,12.30
2018-04-07T15:05:35.785Z,12.40
2018-04-07T15:08:04.189Z,12.40
2018-04-07T15:10:32.665Z,12.40
2018-04-07T15:13:01.077Z,12.40
2018-04-07T15:15:29.564Z,12.40
2018-04-07T15:17:58.772Z,12.30
2018-04-07T15:20:27.201Z,12.30
2018-04-07T15:23:01.731Z,12.40
2018-04-07T15:25:30.459Z,12.30
2018-04-07T15:27:58.860Z,12.10
2018-04-07T15:30:27.281Z,11.90
2018-04-07T15:32:55.694Z,11.80
2018-04-07T15:35:24.545Z,11.60
2018-04-07T15:37:53.017Z,11.50
2018-04-07T15:40:21.405Z,11.40
2018-04-07T15:42:49.840Z,11.40
2018-04-07T15:45:19.021Z,11.30
2018-04-07T15:47:47.411Z,11.30
2018-04-07T15:50:15.842Z,11.30
2018-04-07T15:52:46.117Z,11.40
2018-04-07T15:55:14.522Z,11.40
2018-04-07T15:57:43.684Z,11.40
2018-04-07T16:00:14.023Z,11.40
2018-04-07T16:02:42.440Z,11.50
2018-04-07T16:05:10.841Z,11.50
2018-04-07T16:07:41.714Z,11.40
2018-04-07T16:10:11.049Z,11.30
2018-04-07T16:12:39.589Z,11.20
2018-04-07T16:15:08.047Z,11.20
2018-04-07T16:17:36.581Z,11.20
2018-04-07T16:20:05.950Z,11.10
2018-04-07T16:22:42.592Z,11.10
2018-04-07T16:25:11.064Z,11.10
2018-04-07T16:27:40.190Z,11.00
2018-04-07T16:30:08.713Z,11.00
2018-04-07T16:32:37.301Z,11.00
2018-04-07T16:35:05.753Z,10.90
2018-04-07T16:37:34.377Z,10.90
2018-04-07T16:40:02.898Z,10.90
2018-04-07T16:42:33.258Z,10.70
2018-04-07T16:45:03.862Z,10.70
2018-04-07T16:47:32.460Z,10.70
2018-04-07T16:50:06.333Z,10.70
2018-04-07T16:52:35.694Z,10.70
2018-04-07T16:55:04.874Z,10.70
2018-04-07T16:57:33.483Z,10.60
2018-04-07T17:00:01.882Z,10.60
2018-04-07T17:02:30.373Z,10.60
2018-04-07T17:04:59.576Z,10.60
2018-04-07T17:07:28.813Z,10.50
2018-04-07T17:09:57.281Z,10.50
2018-04-07T17:12:28.396Z,10.50
2018-04-07T17:14:57.110Z,10.60
2018-04-07T17:17:25.759Z,10.50
2018-04-07T17:19:54.133Z,10.40
2018-04-07T17:22:23.365Z,10.30
2018-04-07T17:24:51.792Z,10.30
2018-04-07T17:27:21.133Z,10.20
2018-04-07T17:29:49.604Z,10.20
2018-04-07T17:32:18.956Z,10.00
2018-04-07T17:34:47.560Z,9.90
2018-04-07T17:37:15.973Z,9.90
2018-04-07T17:39:44.393Z,9.70
2018-04-07T17:42:12.765Z,9.60
2018-04-07T17:44:41.321Z,9.50
2018-04-07T17:47:10.665Z,9.60
2018-04-07T17:49:43.815Z,9.60
2018-04-07T17:52:08.786Z,9.60
2018-04-07T17:54:37.168Z,9.60
2018-04-07T17:57:10.137Z,9.70
2018-04-07T17:59:38.497Z,9.70
2018-04-07T18:02:06.886Z,9.80
2018-04-07T18:04:35.309Z,9.80
2018-04-07T18:07:04.505Z,9.80
2018-04-07T18:09:33.675Z,9.70
2018-04-07T18:12:02.310Z,9.70
2018-04-07T18:14:30.712Z,9.70
2018-04-07T18:16:59.087Z,9.60
2018-04-07T18:19:28.997Z,9.50
2018-04-07T18:21:57.585Z,9.30
2018-04-07T18:24:26.163Z,9.20
2018-04-07T18:26:55.373Z,8.90
2018-04-07T18:29:23.926Z,8.80
2018-04-07T18:31:52.532Z,8.80
2018-04-07T18:34:22.211Z,8.90
2018-04-07T18:36:51.457Z,8.90
2018-04-07T18:39:19.880Z,8.90
2018-04-07T18:41:50.709Z,8.90
2018-04-07T18:44:19.245Z,8.90
2018-04-07T18:46:47.625Z,8.70
2018-04-07T18:49:16.065Z,8.60
2018-04-07T18:51:44.627Z,8.30
2018-04-07T18:54:13.029Z,8.10
2018-04-07T18:56:42.424Z,7.90
2018-04-07T18:59:11.585Z,7.40
2018-04-07T19:01:40.775Z,7.10
2018-04-07T19:04:09.260Z,7.10
2018-04-07T19:06:37.628Z,7.00
2018-04-07T19:09:06.065Z,7.00
2018-04-07T19:11:35.242Z,6.90
2018-04-07T19:14:03.717Z,6.90
2018-04-07T19:16:32.252Z,6.90
2018-04-07T19:19:00.971Z,6.80
2018-04-07T19:21:29.392Z,6.80
2018-04-07T19:23:57.855Z,6.80
2018-04-07T19:26:32.339Z,6.70
2018-04-07T19:29:06.139Z,6.60
2018-04-07T19:31:40.758Z,6.50
2018-04-07T19:34:10.710Z,6.50
2018-04-07T19:45:13.594Z,6.40
2018-04-07T19:47:42.756Z,6.50
2018-04-07T19:50:11.146Z,6.40
2018-04-07T19:52:39.556Z,6.40
2018-04-07T19:55:08.063Z,6.40
2018-04-07T19:57:36.440Z,6.40
2018-04-07T20:00:22.214Z,6.30
2018-04-07T20:02:51.393Z,6.30
2018-04-07T20:05:19.960Z,6.20
2018-04-07T20:07:48.365Z,6.20
2018-04-07T20:10:16.929Z,6.20
2018-04-07T20:12:45.323Z,6.10
2018-04-07T20:15:19.110Z,6.00
2018-04-07T20:17:48.396Z,5.90
2018-04-07T20:20:16.978Z,5.80
2018-04-07T20:22:46.123Z,5.80
2018-04-07T20:25:14.521Z,5.80
2018-04-07T20:27:42.945Z,5.80
2018-04-07T20:30:11.356Z,5.70
2018-04-07T20:32:39.728Z,5.60
2018-04-07T20:35:08.904Z,5.60
2018-04-07T20:37:38.820Z,5.60
2018-04-07T20:40:07.216Z,5.50
2018-04-07T20:42:35.692Z,5.50
2018-04-07T20:45:11.582Z,5.40
2018-04-07T20:47:40.164Z,5.30
2018-04-07T20:50:08.709Z,5.30
2018-04-07T20:52:39.154Z,5.30
2018-04-07T20:55:07.704Z,5.30
2018-04-07T20:57:36.152Z,5.40
2018-04-07T21:00:06.249Z,5.40
2018-04-07T21:02:34.793Z,5.50
2018-04-07T21:05:03.189Z,5.50
2018-04-07T21:07:31.812Z,5.60
2018-04-07T21:10:00.186Z,5.50
2018-04-07T21:12:28.584Z,5.50
2018-04-07T21:14:57.439Z,5.60
2018-04-07T21:17:25.818Z,5.60
2018-04-07T21:19:54.217Z,5.60
2018-04-07T21:22:28.213Z,5.70
2018-04-07T21:24:56.828Z,5.80
2018-04-07T21:27:25.299Z,5.80
2018-04-07T21:29:53.709Z,5.80
2018-04-07T21:32:22.924Z,5.90
2018-04-07T21:34:51.304Z,5.90
2018-04-07T21:37:20.167Z,5.90
2018-04-07T21:39:48.563Z,6.00
2018-04-07T21:42:16.957Z,6.00
2018-04-07T21:44:47.694Z,6.10
2018-04-07T21:47:16.259Z,6.20
2018-04-07T21:49:44.692Z,6.10
2018-04-07T21:52:13.252Z,6.00
2018-04-07T21:54:41.694Z,6.00
2018-04-07T21:57:10.096Z,5.90
2018-04-07T21:59:38.477Z,6.00
2018-04-07T22:02:07.824Z,6.00
2018-04-07T22:04:36.239Z,6.00
2018-04-07T22:07:08.176Z,6.00
2018-04-07T22:09:36.603Z,6.00
2018-04-07T22:12:05.013Z,6.00
2018-04-07T22:14:33.489Z,5.80
2018-04-07T22:17:01.881Z,5.80
2018-04-07T22:19:30.332Z,5.70
2018-04-07T22:21:58.786Z,5.60
2018-04-07T22:24:27.271Z,5.50
2018-04-07T22:26:55.689Z,5.50
2018-04-07T22:29:25.598Z,5.40
2018-04-07T22:31:54.042Z,5.40
2018-04-07T22:34:23.242Z,5.30
2018-04-07T22:36:51.685Z,5.30
2018-04-07T22:39:21.003Z,5.10
2018-04-07T22:41:50.275Z,5.10
2018-04-07T22:44:18.733Z,5.00
2018-04-07T22:46:49.135Z,5.10
2018-04-07T22:49:17.521Z,4.90
2018-04-07T22:51:51.428Z,4.90
2018-04-07T22:54:19.867Z,4.80
2018-04-07T22:56:48.324Z,4.90
2018-04-07T22:59:16.863Z,4.90
2018-04-07T23:01:45.290Z,4.90
2018-04-07T23:04:13.689Z,4.90
2018-04-07T23:06:42.245Z,4.80
2018-04-07T23:09:10.829Z,4.70
2018-04-07T23:11:47.452Z,4.70
2018-04-07T23:14:16.163Z,4.60
2018-04-07T23:16:44.572Z,4.40
2018-04-07T23:19:12.977Z,4.30
2018-04-07T23:21:41.415Z,4.30
2018-04-07T23:24:09.811Z,4.30
2018-04-07T23:26:38.251Z,4.30
2018-04-07T23:29:07.494Z,4.30
2018-04-07T23:31:36.819Z,4.20
2018-04-07T23:34:05.237Z,4.20
2018-04-07T23:36:39.143Z,4.10
2018-04-07T23:39:07.513Z,3.90
2018-04-07T23:41:36.025Z,3.80
2018-04-07T23:44:04.450Z,3.70
2018-04-07T23:46:32.894Z,3.60
2018-04-07T23:49:01.331Z,3.50
2018-04-07T23:51:29.888Z,3.50
2018-04-07T23:53:58.307Z,3.60
2018-04-07T23:56:26.754Z,3.70
2018-04-07T23:59:00.508Z,3.70
